createdAt,value
2022-09-14T00:00:32.226Z,98614.16
2022-09-14T00:03:59.740Z,98612.66
2022-09-14T00:07:01.436Z,98606.58
2022-09-14T00:10:03.593Z,98603.77
2022-09-14T00:13:25.215Z,98601.27
2022-09-14T00:16:32.523Z,98598.92
2022-09-14T00:19:34.486Z,98590.55
2022-09-14T00:22:36.115Z,98593.39
2022-09-14T00:25:37.801Z,98596.86
2022-09-14T00:28:45.469Z,98595.77
2022-09-14T00:31:47.231Z,98594.27
2022-09-14T00:34:49.042Z,98601.02
2022-09-14T00:37:51.534Z,98602.54
2022-09-14T00:40:58.355Z,98601.83
2022-09-14T00:44:05.992Z,98599.64
2022-09-14T00:47:07.960Z,98594.48
2022-09-14T00:50:10.048Z,98593.29
2022-09-14T00:53:11.855Z,98586.98
2022-09-14T00:56:14.361Z,98587.77
2022-09-14T00:59:18.384Z,98588.54
2022-09-14T01:02:22.623Z,98590.35
2022-09-14T01:05:44.780Z,98582.86
2022-09-14T01:09:11.160Z,98583.91
2022-09-14T01:12:20.509Z,98583.48
2022-09-14T01:15:34.416Z,98582.81
2022-09-14T01:18:39.534Z,98581.96
2022-09-14T01:21:42.488Z,98579.48
2022-09-14T01:24:56.864Z,98579.20
2022-09-14T01:28:01.752Z,98579.74
2022-09-14T01:31:09.368Z,98581.76
2022-09-14T01:34:15.953Z,98577.69
2022-09-14T01:37:23.138Z,98573.94
2022-09-14T01:40:30.215Z,98574.41
2022-09-14T01:43:46.414Z,98567.52
2022-09-14T01:46:54.038Z,98569.34
2022-09-14T01:50:00.381Z,98564.94
2022-09-14T01:53:11.061Z,98560.39
2022-09-14T01:56:32.201Z,98558.71
2022-09-14T01:59:37.828Z,98555.33
2022-09-14T02:02:44.475Z,98554.59
2022-09-14T02:06:34.025Z,98546.71
2022-09-14T02:09:35.913Z,98541.89
2022-09-14T02:12:38.039Z,98539.80
2022-09-14T02:15:39.851Z,98537.30
2022-09-14T02:18:43.635Z,98532.39
2022-09-14T02:21:45.891Z,98535.89
2022-09-14T02:24:48.431Z,98530.92
2022-09-14T02:27:50.622Z,98526.67
2022-09-14T02:31:18.007Z,98528.78
2022-09-14T02:34:43.169Z,98525.38
2022-09-14T02:37:47.653Z,98525.95
2022-09-14T02:40:57.288Z,98524.80
2022-09-14T02:44:17.165Z,98525.42
2022-09-14T02:47:45.995Z,98524.98
2022-09-14T02:51:06.706Z,98526.27
2022-09-14T02:54:15.665Z,98526.27
2022-09-14T02:57:17.655Z,98523.93
2022-09-14T03:00:19.596Z,98519.34
2022-09-14T03:03:21.875Z,98519.22
2022-09-14T03:06:24.275Z,98521.82
2022-09-14T03:09:26.575Z,98523.58
2022-09-14T03:12:28.351Z,98522.06
2022-09-14T03:15:30.326Z,98518.92
2022-09-14T03:18:33.204Z,98520.42
2022-09-14T03:21:35.066Z,98516.42
2022-09-14T03:24:37.425Z,98511.39
2022-09-14T03:27:39.875Z,98510.96
2022-09-14T03:30:41.572Z,98503.59
2022-09-14T03:33:43.497Z,98508.06
2022-09-14T03:36:45.174Z,98511.63
2022-09-14T03:39:46.849Z,98505.34
2022-09-14T03:42:50.667Z,98505.37
2022-09-14T03:45:52.345Z,98505.11
2022-09-14T03:48:55.523Z,98502.41
2022-09-14T03:51:59.762Z,98505.16
2022-09-14T03:55:02.490Z,98509.97
2022-09-14T03:58:04.119Z,98506.23
2022-09-14T04:01:07.741Z,98508.36
2022-09-14T04:04:09.543Z,98508.55
2022-09-14T04:07:11.200Z,98507.14
2022-09-14T04:10:12.995Z,98508.02
2022-09-14T04:13:14.879Z,98509.64
2022-09-14T04:16:18.321Z,98511.94
2022-09-14T04:19:19.996Z,98511.93
2022-09-14T04:22:21.777Z,98504.83
2022-09-14T04:25:23.593Z,98500.89
2022-09-14T04:28:25.258Z,98496.43
2022-09-14T04:31:27.292Z,98498.80
2022-09-14T04:34:29.147Z,98506.40
2022-09-14T04:37:32.575Z,98505.66
2022-09-14T04:40:34.308Z,98505.55
2022-09-14T04:43:36.219Z,98505.54
2022-09-14T04:46:45.811Z,98501.42
2022-09-14T04:49:48.540Z,98500.13
2022-09-14T04:52:50.288Z,98499.27
2022-09-14T04:55:52.026Z,98502.46
2022-09-14T04:58:56.489Z,98496.86
2022-09-14T05:01:58.292Z,98499.88
2022-09-14T05:04:59.986Z,98498.80
2022-09-14T05:08:02.060Z,98493.67
2022-09-14T05:11:04.010Z,98490.45
2022-09-14T05:14:06.031Z,98494.10
2022-09-14T05:17:08.160Z,98498.89
2022-09-14T05:20:09.976Z,98494.19
2022-09-14T05:23:12.257Z,98490.36
2022-09-14T05:26:14.654Z,98483.89
2022-09-14T05:29:18.390Z,98483.52
2022-09-14T05:32:20.136Z,98487.63
2022-09-14T05:35:21.880Z,98487.38
2022-09-14T05:38:23.576Z,98488.41
2022-09-14T05:41:25.375Z,98488.45
2022-09-14T05:44:27.054Z,98484.02
2022-09-14T05:47:34.804Z,98484.84
2022-09-14T05:50:38.946Z,98480.33
2022-09-14T05:53:41.000Z,98471.23
2022-09-14T05:56:42.644Z,98467.92
2022-09-14T05:59:44.314Z,98468.77
2022-09-14T06:02:50.231Z,98472.60
2022-09-14T06:05:54.895Z,98472.71
2022-09-14T06:08:57.014Z,98476.57
2022-09-14T06:11:59.010Z,98472.22
2022-09-14T06:15:00.760Z,98466.65
2022-09-14T06:18:02.509Z,98475.14
2022-09-14T06:21:05.173Z,98467.27
2022-09-14T06:24:06.892Z,98468.59
2022-09-14T06:27:09.421Z,98476.55
2022-09-14T06:30:11.674Z,98473.23
2022-09-14T06:33:13.681Z,98474.70
2022-09-14T06:36:19.770Z,98472.88
2022-09-14T06:39:21.425Z,98468.92
2022-09-14T06:42:23.315Z,98471.85
2022-09-14T06:45:25.335Z,98479.45
2022-09-14T06:48:28.975Z,98485.35
2022-09-14T06:51:39.096Z,98486.31
2022-09-14T06:54:41.365Z,98483.34
2022-09-14T06:57:43.277Z,98484.00
2022-09-14T07:00:44.933Z,98490.33
2022-09-14T07:03:47.903Z,98490.19
2022-09-14T07:06:50.165Z,98491.49
2022-09-14T07:09:51.953Z,98494.85
2022-09-14T07:12:56.424Z,98491.96
2022-09-14T07:15:58.447Z,98493.40
2022-09-14T07:19:02.045Z,98493.65
2022-09-14T07:22:03.739Z,98495.05
2022-09-14T07:25:05.991Z,98492.46
2022-09-14T07:28:08.013Z,98488.52
2022-09-14T07:31:21.898Z,98495.50
2022-09-14T07:34:24.994Z,98493.80
2022-09-14T07:37:26.737Z,98497.06
2022-09-14T07:40:28.444Z,98496.78
2022-09-14T07:43:30.657Z,98502.08
2022-09-14T07:46:38.433Z,98503.91
2022-09-14T07:49:40.308Z,98498.79
2022-09-14T07:52:41.990Z,98496.05
2022-09-14T07:55:43.816Z,98497.17
2022-09-14T07:58:45.757Z,98501.66
2022-09-14T08:01:49.428Z,98497.89
2022-09-14T08:04:53.946Z,98497.74
2022-09-14T08:07:56.330Z,98503.83
2022-09-14T08:11:12.199Z,98499.57
2022-09-14T08:14:14.252Z,98494.93
2022-09-14T08:17:15.914Z,98489.33
2022-09-14T08:20:17.973Z,98483.96
2022-09-14T08:23:19.667Z,98481.05
2022-09-14T08:26:23.715Z,98484.84
2022-09-14T08:29:26.122Z,98485.36
2022-09-14T08:32:28.125Z,98488.55
2022-09-14T08:35:53.946Z,98490.62
2022-09-14T08:38:51.704Z,98487.36
2022-09-14T08:41:59.089Z,98483.75
2022-09-14T08:45:08.922Z,98483.66
2022-09-14T08:48:20.742Z,98485.52
2022-09-14T08:51:22.680Z,98493.59
2022-09-14T08:54:24.547Z,98494.08
2022-09-14T08:57:40.704Z,98492.52
2022-09-14T09:01:24.262Z,98489.95
2022-09-14T09:04:44.429Z,98486.52
2022-09-14T09:07:56.880Z,98484.36
2022-09-14T09:11:01.693Z,98482.20
2022-09-14T09:14:17.743Z,98483.64
2022-09-14T09:17:25.454Z,98478.82
2022-09-14T09:20:33.728Z,98475.05
2022-09-14T09:23:36.123Z,98477.77
2022-09-14T09:26:39.498Z,98477.97
2022-09-14T09:29:41.261Z,98474.08
2022-09-14T09:32:43.407Z,98480.14
2022-09-14T09:35:45.186Z,98476.33
2022-09-14T09:38:47.571Z,98470.11
2022-09-14T09:42:14.090Z,98468.84
2022-09-14T09:45:15.946Z,98467.82
2022-09-14T09:48:19.929Z,98466.10
2022-09-14T09:51:24.778Z,98462.26
2022-09-14T09:54:31.219Z,98457.73
2022-09-14T09:57:35.845Z,98458.32
2022-09-14T10:00:37.692Z,98454.30
2022-09-14T10:03:40.671Z,98453.52
2022-09-14T10:06:48.092Z,98452.43
2022-09-14T10:10:06.235Z,98451.78
2022-09-14T10:13:17.146Z,98446.02
2022-09-14T10:16:20.673Z,98446.75
2022-09-14T10:19:26.104Z,98442.01
2022-09-14T10:22:35.722Z,98437.70
2022-09-14T10:25:37.801Z,98437.19
2022-09-14T10:28:40.889Z,98442.64
2022-09-14T10:31:43.423Z,98442.99
2022-09-14T10:34:45.877Z,98442.48
2022-09-14T10:38:16.123Z,98443.48
2022-09-14T10:41:36.759Z,98443.67
2022-09-14T10:44:47.453Z,98437.88
2022-09-14T10:48:00.413Z,98433.65
2022-09-14T10:51:14.503Z,98435.41
2022-09-14T10:54:58.389Z,98430.89
2022-09-14T10:58:47.587Z,98426.23
2022-09-14T11:01:55.707Z,98422.61
2022-09-14T11:05:06.532Z,98423.70
2022-09-14T11:08:26.331Z,98419.21
2022-09-14T11:11:40.333Z,98417.19
2022-09-14T11:14:51.696Z,98412.43
2022-09-14T11:18:08.758Z,98411.63
2022-09-14T11:21:21.267Z,98412.83
2022-09-14T11:24:44.009Z,98413.98
2022-09-14T11:27:58.484Z,98410.52
2022-09-14T11:31:04.880Z,98412.47
2022-09-14T11:34:16.777Z,98407.16
2022-09-14T11:37:21.346Z,98402.46
2022-09-14T11:40:31.457Z,98401.98
2022-09-14T11:43:39.885Z,98396.07
2022-09-14T11:47:04.257Z,98395.02
2022-09-14T11:50:24.330Z,98398.21
2022-09-14T11:53:26.361Z,98389.63
2022-09-14T11:56:31.048Z,98389.58
2022-09-14T11:59:41.877Z,98389.60
2022-09-14T12:02:55.964Z,98386.95
2022-09-14T12:06:29.652Z,98385.50
2022-09-14T12:09:39.541Z,98384.63
2022-09-14T12:12:46.662Z,98385.61
2022-09-14T12:15:48.640Z,98395.25
2022-09-14T12:18:55.879Z,98399.44
2022-09-14T12:22:33.905Z,98398.33
2022-09-14T12:25:37.974Z,98407.07
2022-09-14T12:28:48.124Z,98408.51
2022-09-14T12:31:56.387Z,98415.76
2022-09-14T12:35:38.886Z,98421.27
2022-09-14T12:38:43.393Z,98423.82
2022-09-14T12:41:47.994Z,98418.39
2022-09-14T12:44:49.774Z,98424.27
2022-09-14T12:47:52.248Z,98422.79
2022-09-14T12:50:54.855Z,98422.58
2022-09-14T12:54:08.937Z,98425.45
2022-09-14T12:57:24.502Z,98427.34
2022-09-14T13:00:28.438Z,98422.80
2022-09-14T13:03:52.904Z,98424.05
2022-09-14T13:06:56.572Z,98432.89
2022-09-14T13:10:00.220Z,98426.55
2022-09-14T13:13:24.948Z,98427.11
2022-09-14T13:16:47.471Z,98433.84
2022-09-14T13:20:01.279Z,98431.65
2022-09-14T13:23:03.534Z,98433.71
2022-09-14T13:26:23.325Z,98433.58
2022-09-14T13:29:27.144Z,98436.02
2022-09-14T13:32:29.177Z,98435.70
2022-09-14T13:35:55.690Z,98429.40
2022-09-14T13:39:01.666Z,98426.33
2022-09-14T13:42:04.060Z,98426.23
2022-09-14T13:45:06.423Z,98420.36
2022-09-14T13:48:10.784Z,98418.01
2022-09-14T13:51:13.987Z,98409.83
2022-09-14T13:54:26.048Z,98411.45
2022-09-14T13:57:27.841Z,98409.92
2022-09-14T14:00:29.581Z,98412.22
2022-09-14T14:03:34.334Z,98408.10
2022-09-14T14:06:38.033Z,98401.04
2022-09-14T14:09:51.838Z,98394.73
2022-09-14T14:12:54.120Z,98383.30
2022-09-14T14:16:16.253Z,98376.05
2022-09-14T14:19:31.149Z,98368.40
2022-09-14T14:22:34.493Z,98370.88
2022-09-14T14:26:09.938Z,98371.19
2022-09-14T14:29:12.632Z,98362.38
2022-09-14T14:32:14.434Z,98361.34
2022-09-14T14:35:20.076Z,98367.91
2022-09-14T14:38:23.759Z,98365.67
2022-09-14T14:41:25.580Z,98370.26
2022-09-14T14:44:29.154Z,98373.78
2022-09-14T14:47:30.796Z,98372.95
2022-09-14T14:50:34.159Z,98372.36
2022-09-14T14:53:35.960Z,98359.01
2022-09-14T14:56:38.629Z,98354.84
2022-09-14T14:59:40.221Z,98357.91
2022-09-14T15:02:42.760Z,98347.47
2022-09-14T15:05:45.860Z,98339.13
2022-09-14T15:08:47.852Z,98345.43
2022-09-14T15:11:50.557Z,98350.74
2022-09-14T15:14:52.177Z,98349.86
2022-09-14T15:17:54.147Z,98352.84
2022-09-14T15:20:56.011Z,98354.30
2022-09-14T15:23:58.937Z,98346.29
2022-09-14T15:27:00.683Z,98338.07
2022-09-14T15:30:03.560Z,98340.05
2022-09-14T15:33:05.401Z,98340.96
2022-09-14T15:36:07.115Z,98343.88
2022-09-14T15:39:11.897Z,98351.04
2022-09-14T15:42:14.123Z,98355.32
2022-09-14T15:45:15.957Z,98358.79
2022-09-14T15:48:18.710Z,98359.73
2022-09-14T15:51:20.364Z,98358.65
2022-09-14T15:54:24.396Z,98354.42
2022-09-14T15:57:27.492Z,98353.57
2022-09-14T16:00:29.171Z,98350.36
2022-09-14T16:03:31.360Z,98340.16
2022-09-14T16:06:33.788Z,98331.64
2022-09-14T16:09:37.437Z,98328.28
2022-09-14T16:12:39.117Z,98329.86
2022-09-14T16:15:41.492Z,98326.75
2022-09-14T16:18:43.547Z,98326.81
2022-09-14T16:21:45.335Z,98331.33
2022-09-14T16:24:47.358Z,98334.89
2022-09-14T16:27:49.108Z,98332.02
2022-09-14T16:30:51.025Z,98333.67
2022-09-14T16:33:55.626Z,98324.18
2022-09-14T16:36:58.810Z,98323.13
2022-09-14T16:40:00.906Z,98318.83
2022-09-14T16:43:02.746Z,98314.08
2022-09-14T16:46:05.587Z,98314.55
2022-09-14T16:49:07.495Z,98322.27
2022-09-14T16:52:09.193Z,98326.61
2022-09-14T16:55:10.795Z,98323.08
2022-09-14T16:58:12.580Z,98323.20
2022-09-14T17:01:20.427Z,98324.43
2022-09-14T17:04:42.174Z,98327.23
2022-09-14T17:07:44.012Z,98322.40
2022-09-14T17:10:47.167Z,98318.16
2022-09-14T17:13:49.212Z,98317.17
2022-09-14T17:16:51.066Z,98316.97
2022-09-14T17:19:52.937Z,98312.43
2022-09-14T17:22:54.636Z,98312.89
2022-09-14T17:25:56.930Z,98314.09
2022-09-14T17:28:59.424Z,98319.91
2022-09-14T17:32:01.316Z,98320.65
2022-09-14T17:35:03.870Z,98322.38
2022-09-14T17:38:05.677Z,98321.05
2022-09-14T17:41:15.402Z,98317.04
2022-09-14T17:44:18.076Z,98311.28
2022-09-14T17:47:19.970Z,98307.02
2022-09-14T17:50:23.559Z,98299.73
2022-09-14T17:53:25.434Z,98305.02
2022-09-14T17:56:28.424Z,98308.45
2022-09-14T17:59:30.252Z,98307.41
2022-09-14T18:02:31.958Z,98307.48
2022-09-14T18:05:33.803Z,98307.13
2022-09-14T18:08:36.074Z,98303.01
2022-09-14T18:11:38.085Z,98298.14
2022-09-14T18:14:39.974Z,98293.04
2022-09-14T18:17:43.707Z,98293.73
2022-09-14T18:20:45.608Z,98293.02
2022-09-14T18:23:51.648Z,98290.92
2022-09-14T18:26:53.475Z,98284.23
2022-09-14T18:29:55.366Z,98280.33
2022-09-14T18:32:57.051Z,98279.23
2022-09-14T18:35:58.808Z,98276.55
2022-09-14T18:39:00.966Z,98263.80
2022-09-14T18:42:03.902Z,98266.95
2022-09-14T18:45:06.150Z,98266.88
2022-09-14T18:48:07.776Z,98273.86
2022-09-14T18:51:11.071Z,98279.09
2022-09-14T18:54:13.509Z,98275.95
2022-09-14T18:57:17.797Z,98283.81
2022-09-14T19:00:19.591Z,98281.42
2022-09-14T19:03:21.667Z,98279.64
2022-09-14T19:06:24.336Z,98280.29
2022-09-14T19:09:26.654Z,98281.85
2022-09-14T19:12:28.826Z,98282.93
2022-09-14T19:15:32.672Z,98275.92
2022-09-14T19:18:35.329Z,98264.48
2022-09-14T19:21:37.241Z,98260.08
2022-09-14T19:24:39.014Z,98264.19
2022-09-14T19:27:40.693Z,98256.70
2022-09-14T19:30:42.661Z,98252.02
2022-09-14T19:33:45.808Z,98255.10
2022-09-14T19:36:47.645Z,98259.66
2022-09-14T19:39:49.742Z,98257.40
2022-09-14T19:42:51.985Z,98247.14
2022-09-14T19:45:53.879Z,98234.27
2022-09-14T19:48:55.853Z,98223.77
2022-09-14T19:52:00.668Z,98221.61
2022-09-14T19:55:02.379Z,98232.38
2022-09-14T19:58:04.156Z,98235.83
2022-09-14T20:01:06.441Z,98233.84
2022-09-14T20:04:10.343Z,98233.38
2022-09-14T20:07:11.950Z,98229.70
2022-09-14T20:10:13.593Z,98227.77
2022-09-14T20:13:15.712Z,98226.77
2022-09-14T20:16:23.875Z,98228.86
2022-09-14T20:19:27.832Z,98229.30
2022-09-14T20:22:29.625Z,98240.60
2022-09-14T20:25:31.767Z,98241.34
2022-09-14T20:28:34.090Z,98240.23
2022-09-14T20:31:35.791Z,98247.40
2022-09-14T20:34:37.530Z,98244.92
2022-09-14T20:37:39.664Z,98237.35
2022-09-14T20:40:41.329Z,98233.40
2022-09-14T20:43:46.246Z,98227.93
2022-09-14T20:46:48.395Z,98214.12
2022-09-14T20:49:50.668Z,98219.05
2022-09-14T20:52:52.249Z,98212.45
2022-09-14T20:56:00.441Z,98219.20
2022-09-14T20:59:04.728Z,98216.95
2022-09-14T21:02:06.826Z,98216.46
2022-09-14T21:05:09.062Z,98220.95
2022-09-14T21:08:10.766Z,98219.88
2022-09-14T21:11:15.937Z,98219.38
2022-09-14T21:14:19.771Z,98218.88
2022-09-14T21:17:22.185Z,98224.44
2022-09-14T21:20:23.925Z,98211.65
2022-09-14T21:23:26.269Z,98199.91
2022-09-14T21:26:29.630Z,98200.05
2022-09-14T21:29:31.881Z,98194.40
2022-09-14T21:32:33.553Z,98187.23
2022-09-14T21:35:35.364Z,98192.64
2022-09-14T21:38:37.961Z,98191.27
2022-09-14T21:41:40.987Z,98190.48
2022-09-14T21:44:42.650Z,98186.18
2022-09-14T21:47:44.526Z,98185.47
2022-09-14T21:50:47.531Z,98178.72
2022-09-14T21:53:52.024Z,98174.52
2022-09-14T21:56:53.877Z,98168.00
2022-09-14T21:59:55.842Z,98166.17
2022-09-14T22:02:57.557Z,98167.55
2022-09-14T22:06:01.684Z,98163.77
2022-09-14T22:09:03.414Z,98164.31
2022-09-14T22:12:05.328Z,98160.52
2022-09-14T22:15:07.414Z,98151.57
2022-09-14T22:18:09.231Z,98142.11
2022-09-14T22:21:10.986Z,98140.23
2022-09-14T22:24:16.117Z,98144.10
2022-09-14T22:27:17.768Z,98142.67
2022-09-14T22:30:19.441Z,98142.83
2022-09-14T22:33:25.368Z,98140.11
2022-09-14T22:36:27.470Z,98133.27
2022-09-14T22:39:29.736Z,98125.42
2022-09-14T22:42:31.613Z,98125.10
2022-09-14T22:45:33.352Z,98131.15
2022-09-14T22:48:36.973Z,98133.81
2022-09-14T22:51:39.146Z,98133.87
2022-09-14T22:54:40.976Z,98127.17
2022-09-14T22:57:42.665Z,98129.53
2022-09-14T23:00:44.925Z,98125.17
2022-09-14T23:03:46.593Z,98110.83
2022-09-14T23:06:48.934Z,98108.05
2022-09-14T23:09:50.597Z,98102.58
2022-09-14T23:12:52.324Z,98099.25
2022-09-14T23:15:54.041Z,98104.25
2022-09-14T23:18:58.297Z,98107.97
2022-09-14T23:22:01.165Z,98081.93
2022-09-14T23:25:03.223Z,98083.77
2022-09-14T23:28:06.566Z,98092.88
2022-09-14T23:31:08.410Z,98095.02
2022-09-14T23:34:10.094Z,98086.11
2022-09-14T23:37:11.757Z,98078.59
2022-09-14T23:40:13.868Z,98073.52
2022-09-14T23:43:19.487Z,98072.42
2022-09-14T23:46:22.141Z,98068.48
2022-09-14T23:49:23.995Z,98065.93
2022-09-14T23:52:25.726Z,98067.56
2022-09-14T23:55:27.784Z,98066.77
2022-09-14T23:58:29.582Z,98074.27
